Accueil
METAR-TAF:

METAR-TAF

Aéroports :

Berlin, New Hampshire, États-Unis

latitude: 44-34-34N, longitude: 071-10-43W, altitude: 353 m

Observation

Le bulletin a été fait il y a 1 heure et 5 minutes, à 06:52 UTC
Vent 3 kt de nord/nord-ouest
Température -6°C
Humidité 86%
Pression 1015 hPa
Visibilité: 11.3 km
Quelques nuages à une hauteur de 4100 ft
Nuages épars à une hauteur de 6000 ft
Nuages épars à une hauteur de 7000 ft

METAR: KBML 170652Z AUTO 34003KT 7SM FEW041 SCT060 SCT070 M06/M08 A2996 RMK AO2 SLP165 T10561078

Heure: 02:57 (07:57 UTC)


TAF: absent

Observations et prévisions météorologiques de plus de 4000 aéroports (messages METAR et TAF).

Les stations disponibles sont représentées par des disques jaunes et rouges sur la carte.

Passer la souris dessus pour voir le nom de la station.

Cliquer dessus pour voir les observations et prévisions météorologiques.

Pour changer de carte: cliquez sur les boutons verts avec une croix noire pour zoomer, sur le bouton vert avec un tiret pour effectuer un zoom arrière, ou sur les flèches vertes pour les cartes adjacentes.


METAR-TAF: